sensor_id;sensor_type;location;lat;lon;timestamp;pressure;altitude;pressure_sealevel;temperature;humidity
61742;BME280;47650;49.848;9.620;2023-04-28T00:02:05;99536.47;;;12.62;54.46
61742;BME280;47650;49.848;9.620;2023-04-28T00:04:31;99380.34;;;11.61;54.22
61742;BME280;47650;49.848;9.620;2023-04-28T00:06:57;99530.81;;;12.57;54.80
61742;BME280;47650;49.848;9.620;2023-04-28T00:09:23;99509.34;;;12.50;54.89
61742;BME280;47650;49.848;9.620;2023-04-28T00:11:49;99505.00;;;12.41;54.97
61742;BME280;47650;49.848;9.620;2023-04-28T00:14:20;99440.91;;;12.10;55.29
61742;BME280;47650;49.848;9.620;2023-04-28T00:16:45;99495.03;;;12.43;55.20
61742;BME280;47650;49.848;9.620;2023-04-28T00:19:11;99505.03;;;12.49;55.56
61742;BME280;47650;49.848;9.620;2023-04-28T00:21:36;99364.94;;;11.64;55.95
61742;BME280;47650;49.848;9.620;2023-04-28T00:24:03;99235.41;;;10.81;56.00
61742;BME280;47650;49.848;9.620;2023-04-28T00:26:29;99508.47;;;12.41;56.90
61742;BME280;47650;49.848;9.620;2023-04-28T00:28:58;99391.22;;;11.50;56.93
61742;BME280;47650;49.848;9.620;2023-04-28T00:31:23;99397.84;;;11.72;57.50
61742;BME280;47650;49.848;9.620;2023-04-28T00:33:49;99506.31;;;12.45;56.87
61742;BME280;47650;49.848;9.620;2023-04-28T00:36:14;99483.72;;;12.41;56.65
61742;BME280;47650;49.848;9.620;2023-04-28T00:38:40;99494.06;;;12.52;56.21
61742;BME280;47650;49.848;9.620;2023-04-28T00:41:09;99484.94;;;12.55;56.08
61742;BME280;47650;49.848;9.620;2023-04-28T00:43:48;99484.78;;;12.56;55.81
61742;BME280;47650;49.848;9.620;2023-04-28T00:46:19;99484.78;;;12.56;56.04
61742;BME280;47650;49.848;9.620;2023-04-28T00:48:50;99483.72;;;12.41;56.10
61742;BME280;47650;49.848;9.620;2023-04-28T00:51:15;99361.28;;;11.65;56.21
61742;BME280;47650;49.848;9.620;2023-04-28T00:53:42;99450.41;;;12.20;56.27
61742;BME280;47650;49.848;9.620;2023-04-28T00:56:08;99458.72;;;12.26;56.31
61742;BME280;47650;49.848;9.620;2023-04-28T00:58:34;99439.06;;;12.10;56.53
61742;BME280;47650;49.848;9.620;2023-04-28T01:01:05;99460.56;;;12.25;56.50
61742;BME280;47650;49.848;9.620;2023-04-28T01:03:34;99471.56;;;12.38;56.48
61742;BME280;47650;49.848;9.620;2023-04-28T01:06:01;99432.13;;;12.17;56.73
61742;BME280;47650;49.848;9.620;2023-04-28T01:08:29;99463.56;;;12.30;56.77
61742;BME280;47650;49.848;9.620;2023-04-28T01:11:10;99448.41;;;12.22;56.30
61742;BME280;47650;49.848;9.620;2023-04-28T01:13:40;99461.59;;;12.40;56.34
61742;BME280;47650;49.848;9.620;2023-04-28T01:16:08;99465.09;;;12.41;56.08
61742;BME280;47650;49.848;9.620;2023-04-28T01:18:34;99452.47;;;12.43;56.19
61742;BME280;47650;49.848;9.620;2023-04-28T01:20:59;99445.50;;;12.42;56.58
61742;BME280;47650;49.848;9.620;2023-04-28T01:23:28;99444.81;;;12.40;57.03
61742;BME280;47650;49.848;9.620;2023-04-28T01:25:54;99273.97;;;11.28;57.40
61742;BME280;47650;49.848;9.620;2023-04-28T01:28:22;99446.16;;;12.36;57.22
61742;BME280;47650;49.848;9.620;2023-04-28T01:30:50;99257.38;;;11.18;57.61
61742;BME280;47650;49.848;9.620;2023-04-28T01:33:15;99441.97;;;12.33;58.12
61742;BME280;47650;49.848;9.620;2023-04-28T01:35:42;99407.22;;;12.18;57.95
61742;BME280;47650;49.848;9.620;2023-04-28T01:38:07;99310.47;;;11.60;58.00
61742;BME280;47650;49.848;9.620;2023-04-28T01:40:35;99268.34;;;11.31;58.04
61742;BME280;47650;49.848;9.620;2023-04-28T01:43:03;99351.53;;;11.74;58.29
61742;BME280;47650;49.848;9.620;2023-04-28T01:45:30;99282.03;;;11.44;58.49
61742;BME280;47650;49.848;9.620;2023-04-28T01:47:55;99434.38;;;12.47;58.07
61742;BME280;47650;49.848;9.620;2023-04-28T01:50:22;99434.88;;;12.50;58.12
61742;BME280;47650;49.848;9.620;2023-04-28T01:52:47;99434.53;;;12.45;57.58
61742;BME280;47650;49.848;9.620;2023-04-28T01:55:13;99405.41;;;12.35;57.66
61742;BME280;47650;49.848;9.620;2023-04-28T01:57:38;99408.59;;;12.47;57.81
61742;BME280;47650;49.848;9.620;2023-04-28T02:00:04;99437.59;;;12.67;57.69
61742;BME280;47650;49.848;9.620;2023-04-28T02:02:32;99389.69;;;12.50;57.17
61742;BME280;47650;49.848;9.620;2023-04-28T02:04:57;99416.47;;;12.73;56.78
61742;BME280;47650;49.848;9.620;2023-04-28T02:07:22;99299.88;;;12.03;56.64
61742;BME280;47650;49.848;9.620;2023-04-28T02:09:48;99418.78;;;12.68;56.57
61742;BME280;47650;49.848;9.620;2023-04-28T02:12:14;99360.06;;;12.37;56.32
61742;BME280;47650;49.848;9.620;2023-04-28T02:14:41;99344.44;;;12.26;56.50
61742;BME280;47650;49.848;9.620;2023-04-28T02:17:06;99297.03;;;11.96;56.69
61742;BME280;47650;49.848;9.620;2023-04-28T02:19:31;99322.63;;;12.14;57.23
61742;BME280;47650;49.848;9.620;2023-04-28T02:21:57;99409.00;;;12.69;57.45
61742;BME280;47650;49.848;9.620;2023-04-28T02:24:24;99400.00;;;12.70;57.44
61742;BME280;47650;49.848;9.620;2023-04-28T02:26:55;99332.31;;;12.31;56.98
61742;BME280;47650;49.848;9.620;2023-04-28T02:29:21;99380.34;;;12.38;57.79
61742;BME280;47650;49.848;9.620;2023-04-28T02:31:48;99395.19;;;12.57;58.14
61742;BME280;47650;49.848;9.620;2023-04-28T02:34:14;99401.31;;;12.57;58.13
61742;BME280;47650;49.848;9.620;2023-04-28T02:36:48;99350.75;;;12.33;57.95
61742;BME280;47650;49.848;9.620;2023-04-28T02:39:16;99341.81;;;12.34;58.17
61742;BME280;47650;49.848;9.620;2023-04-28T02:41:43;99310.19;;;12.14;58.23
61742;BME280;47650;49.848;9.620;2023-04-28T02:44:10;99380.22;;;12.64;57.97
61742;BME280;47650;49.848;9.620;2023-04-28T02:46:36;99381.53;;;12.68;58.30
61742;BME280;47650;49.848;9.620;2023-04-28T02:49:02;99364.59;;;12.61;59.00
61742;BME280;47650;49.848;9.620;2023-04-28T02:51:27;99281.63;;;12.08;59.46
61742;BME280;47650;49.848;9.620;2023-04-28T02:53:53;99288.59;;;12.17;59.80
61742;BME280;47650;49.848;9.620;2023-04-28T02:56:20;99354.28;;;12.50;59.55
61742;BME280;47650;49.848;9.620;2023-04-28T02:58:48;99378.72;;;12.70;58.54
61742;BME280;47650;49.848;9.620;2023-04-28T03:01:13;99381.06;;;12.73;58.59
61742;BME280;47650;49.848;9.620;2023-04-28T03:03:39;99381.72;;;12.75;58.75
61742;BME280;47650;49.848;9.620;2023-04-28T03:06:04;99306.88;;;12.20;58.47
61742;BME280;47650;49.848;9.620;2023-04-28T03:08:31;99397.03;;;12.81;57.94
61742;BME280;47650;49.848;9.620;2023-04-28T03:10:57;99389.88;;;12.82;57.68
61742;BME280;47650;49.848;9.620;2023-04-28T03:13:23;99336.81;;;12.47;57.83
61742;BME280;47650;49.848;9.620;2023-04-28T03:15:48;99391.06;;;12.79;59.19
61742;BME280;47650;49.848;9.620;2023-04-28T03:18:14;99396.03;;;12.74;60.04
61742;BME280;47650;49.848;9.620;2023-04-28T03:20:41;99393.38;;;12.66;59.89
61742;BME280;47650;49.848;9.620;2023-04-28T03:23:06;99380.19;;;12.56;59.96
61742;BME280;47650;49.848;9.620;2023-04-28T03:25:34;99387.34;;;12.39;60.70
61742;BME280;47650;49.848;9.620;2023-04-28T03:27:59;99390.78;;;12.31;61.14
61742;BME280;47650;49.848;9.620;2023-04-28T03:30:25;99385.28;;;12.25;61.71
61742;BME280;47650;49.848;9.620;2023-04-28T03:32:51;99381.13;;;12.22;62.03
61742;BME280;47650;49.848;9.620;2023-04-28T03:35:16;99378.13;;;12.17;62.76
61742;BME280;47650;49.848;9.620;2023-04-28T03:37:42;99262.84;;;11.59;63.44
61742;BME280;47650;49.848;9.620;2023-04-28T03:40:08;99289.09;;;11.70;63.90
61742;BME280;47650;49.848;9.620;2023-04-28T03:45:01;99270.13;;;11.57;65.17
61742;BME280;47650;49.848;9.620;2023-04-28T03:47:27;99363.66;;;12.11;65.52
61742;BME280;47650;49.848;9.620;2023-04-28T03:49:52;99335.34;;;11.94;66.44
61742;BME280;47650;49.848;9.620;2023-04-28T03:52:18;99309.03;;;11.74;66.65
61742;BME280;47650;49.848;9.620;2023-04-28T03:54:43;99356.28;;;11.97;66.25
61742;BME280;47650;49.848;9.620;2023-04-28T03:57:08;99362.09;;;11.92;66.30
61742;BME280;47650;49.848;9.620;2023-04-28T03:59:34;99351.41;;;11.84;66.63
61742;BME280;47650;49.848;9.620;2023-04-28T04:02:02;99359.97;;;11.96;67.38
61742;BME280;47650;49.848;9.620;2023-04-28T04:04:28;99332.97;;;11.82;67.22
61742;BME280;47650;49.848;9.620;2023-04-28T04:06:54;99322.50;;;11.81;66.97
61742;BME280;47650;49.848;9.620;2023-04-28T04:09:19;99285.75;;;11.60;66.48
61742;BME280;47650;49.848;9.620;2023-04-28T04:11:46;99340.34;;;11.97;66.99
61742;BME280;47650;49.848;9.620;2023-04-28T04:14:11;99329.31;;;11.75;66.70
61742;BME280;47650;49.848;9.620;2023-04-28T04:16:36;99341.09;;;11.81;66.79
61742;BME280;47650;49.848;9.620;2023-04-28T04:19:02;99326.13;;;11.72;66.79
61742;BME280;47650;49.848;9.620;2023-04-28T04:21:28;99329.47;;;11.74;66.73
61742;BME280;47650;49.848;9.620;2023-04-28T04:23:54;99338.81;;;11.86;66.83
61742;BME280;47650;49.848;9.620;2023-04-28T04:26:20;99348.50;;;11.69;66.60
61742;BME280;47650;49.848;9.620;2023-04-28T04:28:49;99113.00;;;10.33;66.69
61742;BME280;47650;49.848;9.620;2023-04-28T04:31:15;99334.31;;;11.78;67.02
61742;BME280;47650;49.848;9.620;2023-04-28T04:33:44;99308.22;;;11.74;67.32
61742;BME280;47650;49.848;9.620;2023-04-28T04:36:11;99319.69;;;11.82;67.08
61742;BME280;47650;49.848;9.620;2023-04-28T04:38:36;99260.16;;;11.51;68.42
61742;BME280;47650;49.848;9.620;2023-04-28T04:41:03;99317.47;;;11.96;68.32
61742;BME280;47650;49.848;9.620;2023-04-28T04:43:29;99322.41;;;11.99;68.55
61742;BME280;47650;49.848;9.620;2023-04-28T04:45:55;99318.78;;;12.00;68.56
61742;BME280;47650;49.848;9.620;2023-04-28T04:48:22;99313.47;;;12.00;69.09
61742;BME280;47650;49.848;9.620;2023-04-28T04:50:50;99311.50;;;12.10;69.22
61742;BME280;47650;49.848;9.620;2023-04-28T04:53:15;99295.84;;;11.99;68.05
61742;BME280;47650;49.848;9.620;2023-04-28T04:55:40;99303.50;;;12.02;68.26
61742;BME280;47650;49.848;9.620;2023-04-28T04:58:07;99299.56;;;12.06;68.76
61742;BME280;47650;49.848;9.620;2023-04-28T05:00:32;99311.53;;;12.18;68.85
61742;BME280;47650;49.848;9.620;2023-04-28T05:02:57;99272.94;;;11.98;69.82
61742;BME280;47650;49.848;9.620;2023-04-28T05:05:23;99308.53;;;12.30;68.64
61742;BME280;47650;49.848;9.620;2023-04-28T05:07:49;99298.75;;;12.30;68.65
61742;BME280;47650;49.848;9.620;2023-04-28T05:10:14;99310.91;;;12.41;68.23
61742;BME280;47650;49.848;9.620;2023-04-28T05:12:39;99309.56;;;12.37;67.13
61742;BME280;47650;49.848;9.620;2023-04-28T05:15:05;99291.91;;;12.19;67.11
61742;BME280;47650;49.848;9.620;2023-04-28T05:17:33;99292.41;;;12.23;66.46
61742;BME280;47650;49.848;9.620;2023-04-28T05:19:58;99284.59;;;12.21;68.10
61742;BME280;47650;49.848;9.620;2023-04-28T05:22:25;99293.59;;;12.37;67.95
61742;BME280;47650;49.848;9.620;2023-04-28T05:24:53;99253.06;;;12.18;67.18
61742;BME280;47650;49.848;9.620;2023-04-28T05:27:20;99301.25;;;12.48;67.01
61742;BME280;47650;49.848;9.620;2023-04-28T05:29:46;99283.31;;;12.50;68.19
61742;BME280;47650;49.848;9.620;2023-04-28T05:32:14;99291.97;;;12.60;68.75
61742;BME280;47650;49.848;9.620;2023-04-28T05:34:39;99300.28;;;12.74;68.57
61742;BME280;47650;49.848;9.620;2023-04-28T05:37:04;99289.13;;;12.87;67.89
61742;BME280;47650;49.848;9.620;2023-04-28T05:39:30;99251.41;;;12.67;67.61
61742;BME280;47650;49.848;9.620;2023-04-28T05:41:55;99298.56;;;12.97;66.34
61742;BME280;47650;49.848;9.620;2023-04-28T05:44:23;99251.72;;;12.80;65.33
61742;BME280;47650;49.848;9.620;2023-04-28T05:46:49;99254.03;;;12.91;65.33
61742;BME280;47650;49.848;9.620;2023-04-28T05:49:16;99270.97;;;13.07;64.42
61742;BME280;47650;49.848;9.620;2023-04-28T05:51:41;99301.03;;;13.24;65.02
61742;BME280;47650;49.848;9.620;2023-04-28T05:54:07;99300.38;;;13.22;65.63
61742;BME280;47650;49.848;9.620;2023-04-28T05:56:35;99313.72;;;13.13;65.71
61742;BME280;47650;49.848;9.620;2023-04-28T05:59:01;99306.94;;;12.62;66.12
61742;BME280;47650;49.848;9.620;2023-04-28T06:01:29;99294.63;;;12.44;67.93
61742;BME280;47650;49.848;9.620;2023-04-28T06:03:55;99296.28;;;12.45;69.30
61742;BME280;47650;49.848;9.620;2023-04-28T06:06:22;99296.28;;;12.45;70.96
61742;BME280;47650;49.848;9.620;2023-04-28T06:08:48;99288.78;;;12.49;71.77
61742;BME280;47650;49.848;9.620;2023-04-28T06:11:13;99246.06;;;12.17;69.61
61742;BME280;47650;49.848;9.620;2023-04-28T06:16:06;99261.69;;;12.37;72.93
61742;BME280;47650;49.848;9.620;2023-04-28T06:18:38;99296.63;;;12.58;71.06
61742;BME280;47650;49.848;9.620;2023-04-28T06:21:03;99291.63;;;12.47;70.70
61742;BME280;47650;49.848;9.620;2023-04-28T06:23:29;99235.94;;;12.13;72.08
61742;BME280;47650;49.848;9.620;2023-04-28T06:25:55;99287.47;;;12.36;73.28
61742;BME280;47650;49.848;9.620;2023-04-28T06:28:30;99319.69;;;12.41;71.23
61742;BME280;47650;49.848;9.620;2023-04-28T06:31:04;99249.53;;;11.51;71.93
61742;BME280;47650;49.848;9.620;2023-04-28T06:33:29;99330.91;;;11.94;72.67
61742;BME280;47650;49.848;9.620;2023-04-28T06:35:55;99323.88;;;11.24;74.21
61742;BME280;47650;49.848;9.620;2023-04-28T06:38:20;99301.31;;;10.76;77.06
61742;BME280;47650;49.848;9.620;2023-04-28T06:40:46;99313.91;;;11.18;79.26
61742;BME280;47650;49.848;9.620;2023-04-28T06:43:11;99271.97;;;10.96;80.37
61742;BME280;47650;49.848;9.620;2023-04-28T06:45:37;99338.97;;;10.98;80.26
61742;BME280;47650;49.848;9.620;2023-04-28T06:48:03;99314.53;;;11.12;81.75
61742;BME280;47650;49.848;9.620;2023-04-28T06:50:28;99320.25;;;11.25;83.21
61742;BME280;47650;49.848;9.620;2023-04-28T06:52:53;99332.34;;;11.02;80.86
61742;BME280;47650;49.848;9.620;2023-04-28T06:55:19;99341.41;;;11.17;83.07
61742;BME280;47650;49.848;9.620;2023-04-28T06:57:44;99337.47;;;11.21;84.08
61742;BME280;47650;49.848;9.620;2023-04-28T07:00:10;99310.97;;;11.03;84.86
61742;BME280;47650;49.848;9.620;2023-04-28T07:02:42;99326.28;;;10.65;83.32
61742;BME280;47650;49.848;9.620;2023-04-28T07:05:08;99335.06;;;10.84;85.41
61742;BME280;47650;49.848;9.620;2023-04-28T07:07:33;99333.38;;;10.83;86.89
61742;BME280;47650;49.848;9.620;2023-04-28T07:09:59;99285.28;;;10.78;88.35
61742;BME280;47650;49.848;9.620;2023-04-28T07:12:26;99327.75;;;11.30;88.48
61742;BME280;47650;49.848;9.620;2023-04-28T07:14:54;99319.97;;;11.63;89.26
61742;BME280;47650;49.848;9.620;2023-04-28T07:17:21;99314.59;;;11.55;87.38
61742;BME280;47650;49.848;9.620;2023-04-28T07:19:46;99320.66;;;11.39;87.10
61742;BME280;47650;49.848;9.620;2023-04-28T07:22:14;99287.81;;;10.61;86.57
61742;BME280;47650;49.848;9.620;2023-04-28T07:24:43;99313.34;;;11.06;88.61
61742;BME280;47650;49.848;9.620;2023-04-28T07:27:10;99178.88;;;9.92;87.32
61742;BME280;47650;49.848;9.620;2023-04-28T07:29:35;99289.56;;;10.34;87.74
61742;BME280;47650;49.848;9.620;2023-04-28T07:32:01;99314.66;;;10.84;89.62
61742;BME280;47650;49.848;9.620;2023-04-28T07:34:28;99313.06;;;10.91;89.54
61742;BME280;47650;49.848;9.620;2023-04-28T07:36:53;99241.06;;;10.86;90.37
61742;BME280;47650;49.848;9.620;2023-04-28T07:39:20;99317.31;;;11.63;91.55
61742;BME280;47650;49.848;9.620;2023-04-28T07:41:46;99314.03;;;11.77;91.37
61742;BME280;47650;49.848;9.620;2023-04-28T07:44:12;99341.75;;;12.17;91.71
61742;BME280;47650;49.848;9.620;2023-04-28T07:46:38;99228.22;;;11.85;91.15
61742;BME280;47650;49.848;9.620;2023-04-28T07:49:03;99291.13;;;12.27;88.15
61742;BME280;47650;49.848;9.620;2023-04-28T07:51:36;99271.41;;;11.87;86.12
61742;BME280;47650;49.848;9.620;2023-04-28T07:54:04;99308.25;;;12.49;89.01
61742;BME280;47650;49.848;9.620;2023-04-28T07:56:29;99310.88;;;12.25;88.37
61742;BME280;47650;49.848;9.620;2023-04-28T07:59:13;99309.66;;;12.11;88.59
61742;BME280;47650;49.848;9.620;2023-04-28T08:01:47;99292.03;;;11.51;86.75
61742;BME280;47650;49.848;9.620;2023-04-28T08:04:13;99306.09;;;10.90;86.19
61742;BME280;47650;49.848;9.620;2023-04-28T08:06:39;99317.75;;;11.24;87.98
61742;BME280;47650;49.848;9.620;2023-04-28T08:09:04;99289.03;;;11.19;89.35
61742;BME280;47650;49.848;9.620;2023-04-28T08:11:30;99293.63;;;11.43;90.79
61742;BME280;47650;49.848;9.620;2023-04-28T08:14:05;99289.16;;;11.44;89.10
61742;BME280;47650;49.848;9.620;2023-04-28T08:16:31;99210.19;;;11.46;90.21
61742;BME280;47650;49.848;9.620;2023-04-28T08:18:58;99313.41;;;12.43;90.92
61742;BME280;47650;49.848;9.620;2023-04-28T08:21:24;99311.19;;;12.13;87.80
61742;BME280;47650;49.848;9.620;2023-04-28T08:23:50;99301.59;;;12.29;88.04
61742;BME280;47650;49.848;9.620;2023-04-28T08:26:15;99292.94;;;12.43;88.98
61742;BME280;47650;49.848;9.620;2023-04-28T08:28:43;99297.94;;;12.63;89.07
61742;BME280;47650;49.848;9.620;2023-04-28T08:31:10;99283.00;;;12.53;89.64
61742;BME280;47650;49.848;9.620;2023-04-28T08:33:36;99296.63;;;12.67;89.66
61742;BME280;47650;49.848;9.620;2023-04-28T08:36:01;99289.78;;;12.64;89.33
61742;BME280;47650;49.848;9.620;2023-04-28T08:38:29;99288.78;;;12.40;86.99
61742;BME280;47650;49.848;9.620;2023-04-28T08:41:03;99277.81;;;12.68;88.89
61742;BME280;47650;49.848;9.620;2023-04-28T08:43:28;99285.13;;;12.83;88.42
61742;BME280;47650;49.848;9.620;2023-04-28T08:45:54;99274.94;;;13.11;89.27
61742;BME280;47650;49.848;9.620;2023-04-28T08:48:21;99270.75;;;13.41;89.02
61742;BME280;47650;49.848;9.620;2023-04-28T08:50:52;99242.41;;;13.48;89.65
61742;BME280;47650;49.848;9.620;2023-04-28T08:53:25;99266.78;;;13.68;88.84
61742;BME280;47650;49.848;9.620;2023-04-28T08:55:53;99260.28;;;13.31;84.42
61742;BME280;47650;49.848;9.620;2023-04-28T08:58:22;99265.28;;;13.74;86.68
61742;BME280;47650;49.848;9.620;2023-04-28T09:00:52;99254.69;;;13.02;84.38
61742;BME280;47650;49.848;9.620;2023-04-28T09:03:18;99256.53;;;12.68;85.40
61742;BME280;47650;49.848;9.620;2023-04-28T09:05:48;99297.22;;;13.18;86.67
61742;BME280;47650;49.848;9.620;2023-04-28T09:08:13;99225.09;;;12.80;86.73
61742;BME280;47650;49.848;9.620;2023-04-28T09:10:41;99256.56;;;12.60;86.10
61742;BME280;47650;49.848;9.620;2023-04-28T09:13:06;99283.94;;;13.10;88.07
61742;BME280;47650;49.848;9.620;2023-04-28T09:15:38;99293.03;;;13.32;88.38
61742;BME280;47650;49.848;9.620;2023-04-28T09:18:14;99303.50;;;13.25;88.00
61742;BME280;47650;49.848;9.620;2023-04-28T09:20:49;99285.25;;;13.22;87.45
61742;BME280;47650;49.848;9.620;2023-04-28T09:23:23;99245.22;;;12.83;84.78
61742;BME280;47650;49.848;9.620;2023-04-28T09:26:06;99256.25;;;11.79;85.76
61742;BME280;47650;49.848;9.620;2023-04-28T09:28:33;99295.53;;;12.02;88.40
61742;BME280;47650;49.848;9.620;2023-04-28T09:30:59;99308.09;;;11.83;89.00
61742;BME280;47650;49.848;9.620;2023-04-28T09:33:25;99267.44;;;11.48;88.76
61742;BME280;47650;49.848;9.620;2023-04-28T09:35:51;99302.28;;;11.45;89.02
61742;BME280;47650;49.848;9.620;2023-04-28T09:38:20;99175.28;;;10.56;88.82
61742;BME280;47650;49.848;9.620;2023-04-28T09:41:00;99281.09;;;11.62;88.51
61742;BME280;47650;49.848;9.620;2023-04-28T09:43:31;99258.38;;;11.59;88.89
61742;BME280;47650;49.848;9.620;2023-04-28T09:46:01;99270.28;;;11.98;90.26
61742;BME280;47650;49.848;9.620;2023-04-28T09:48:31;99275.69;;;12.39;89.62
61742;BME280;47650;49.848;9.620;2023-04-28T09:51:03;99263.38;;;12.38;86.60
61742;BME280;47650;49.848;9.620;2023-04-28T09:53:31;99282.97;;;12.45;87.24
61742;BME280;47650;49.848;9.620;2023-04-28T09:56:00;99244.84;;;11.87;87.37
61742;BME280;47650;49.848;9.620;2023-04-28T09:58:29;99212.97;;;11.36;87.68
61742;BME280;47650;49.848;9.620;2023-04-28T10:00:57;99255.44;;;11.79;89.27
61742;BME280;47650;49.848;9.620;2023-04-28T10:03:25;99291.44;;;12.32;88.95
61742;BME280;47650;49.848;9.620;2023-04-28T10:05:58;99292.84;;;11.94;87.72
61742;BME280;47650;49.848;9.620;2023-04-28T10:08:24;99296.88;;;11.63;88.27
61742;BME280;47650;49.848;9.620;2023-04-28T10:10:51;99286.91;;;12.00;87.99
61742;BME280;47650;49.848;9.620;2023-04-28T10:13:19;99236.44;;;11.49;88.37
61742;BME280;47650;49.848;9.620;2023-04-28T10:15:45;99244.91;;;12.28;89.49
61742;BME280;47650;49.848;9.620;2023-04-28T10:18:14;99246.41;;;12.31;86.95
61742;BME280;47650;49.848;9.620;2023-04-28T10:20:45;99261.03;;;12.27;87.05
61742;BME280;47650;49.848;9.620;2023-04-28T10:23:46;99286.13;;;12.49;86.86
61742;BME280;47650;49.848;9.620;2023-04-28T10:26:17;99238.78;;;12.60;85.85
61742;BME280;47650;49.848;9.620;2023-04-28T10:28:51;99279.28;;;12.87;86.80
61742;BME280;47650;49.848;9.620;2023-04-28T10:31:20;99256.22;;;12.63;86.18
61742;BME280;47650;49.848;9.620;2023-04-28T10:33:47;99258.97;;;13.11;86.12
61742;BME280;47650;49.848;9.620;2023-04-28T10:36:46;99261.25;;;13.39;84.37
61742;BME280;47650;49.848;9.620;2023-04-28T10:39:11;99272.34;;;12.86;83.26
61742;BME280;47650;49.848;9.620;2023-04-28T10:41:44;99248.75;;;12.67;84.66
61742;BME280;47650;49.848;9.620;2023-04-28T10:47:03;99283.31;;;12.50;85.96
61742;BME280;47650;49.848;9.620;2023-04-28T10:55:32;99284.31;;;12.57;84.68
61742;BME280;47650;49.848;9.620;2023-04-28T11:00:52;99242.56;;;14.33;84.77
61742;BME280;47650;49.848;9.620;2023-04-28T11:06:21;99221.16;;;16.05;81.27
61742;BME280;47650;49.848;9.620;2023-04-28T11:09:45;99206.88;;;16.19;77.03
61742;BME280;47650;49.848;9.620;2023-04-28T11:12:03;99235.28;;;17.68;76.72
61742;BME280;47650;49.848;9.620;2023-04-28T11:14:35;99231.03;;;17.04;71.29
61742;BME280;47650;49.848;9.620;2023-04-28T11:17:07;99229.84;;;18.03;74.26
61742;BME280;47650;49.848;9.620;2023-04-28T11:19:37;99232.78;;;17.18;73.22
61742;BME280;47650;49.848;9.620;2023-04-28T11:22:12;99236.06;;;18.23;74.64
61742;BME280;47650;49.848;9.620;2023-04-28T11:24:37;99144.50;;;16.68;68.90
61742;BME280;47650;49.848;9.620;2023-04-28T11:27:04;99171.81;;;17.20;72.13
61742;BME280;47650;49.848;9.620;2023-04-28T11:29:38;99176.22;;;17.41;75.04
61742;BME280;47650;49.848;9.620;2023-04-28T11:32:05;99240.97;;;17.93;75.15
61742;BME280;47650;49.848;9.620;2023-04-28T11:34:33;99214.63;;;17.55;72.90
61742;BME280;47650;49.848;9.620;2023-04-28T11:37:05;99203.44;;;18.13;74.62
61742;BME280;47650;49.848;9.620;2023-04-28T11:39:33;99147.50;;;18.23;73.87
61742;BME280;47650;49.848;9.620;2023-04-28T11:42:08;99180.28;;;18.79;72.82
61742;BME280;47650;49.848;9.620;2023-04-28T11:44:33;99157.59;;;18.75;69.84
61742;BME280;47650;49.848;9.620;2023-04-28T11:47:00;99218.59;;;19.46;70.87
61742;BME280;47650;49.848;9.620;2023-04-28T11:49:45;99184.16;;;19.23;70.62
61742;BME280;47650;49.848;9.620;2023-04-28T11:52:13;99172.88;;;19.91;72.07
61742;BME280;47650;49.848;9.620;2023-04-28T11:54:39;99167.59;;;19.71;70.03
61742;BME280;47650;49.848;9.620;2023-04-28T11:57:17;99219.25;;;20.51;73.54
61742;BME280;47650;49.848;9.620;2023-04-28T11:59:43;99209.09;;;20.53;73.48
61742;BME280;47650;49.848;9.620;2023-04-28T12:02:10;99137.66;;;19.61;68.48
61742;BME280;47650;49.848;9.620;2023-04-28T12:04:36;99222.47;;;20.66;69.87
61742;BME280;47650;49.848;9.620;2023-04-28T12:07:10;99210.56;;;21.17;68.86
61742;BME280;47650;49.848;9.620;2023-04-28T12:10:14;99208.34;;;21.51;66.22
61742;BME280;47650;49.848;9.620;2023-04-28T12:12:43;99196.69;;;22.00;65.50
61742;BME280;47650;49.848;9.620;2023-04-28T12:15:13;99200.56;;;22.04;63.68
61742;BME280;47650;49.848;9.620;2023-04-28T12:17:40;99199.72;;;22.33;65.93
61742;BME280;47650;49.848;9.620;2023-04-28T12:20:09;99198.69;;;22.82;64.54
61742;BME280;47650;49.848;9.620;2023-04-28T12:22:46;99183.44;;;24.09;60.42
61742;BME280;47650;49.848;9.620;2023-04-28T12:25:16;99190.44;;;24.39;59.91
61742;BME280;47650;49.848;9.620;2023-04-28T12:28:03;99188.97;;;24.65;51.28
61742;BME280;47650;49.848;9.620;2023-04-28T12:30:31;99181.03;;;22.32;49.15
61742;BME280;47650;49.848;9.620;2023-04-28T12:32:56;99204.56;;;24.75;55.94
61742;BME280;47650;49.848;9.620;2023-04-28T12:35:25;99207.53;;;23.94;54.54
61742;BME280;47650;49.848;9.620;2023-04-28T12:37:51;99173.13;;;24.40;56.27
61742;BME280;47650;49.848;9.620;2023-04-28T12:40:19;99216.59;;;20.19;54.29
61742;BME280;47650;49.848;9.620;2023-04-28T12:42:45;99203.59;;;21.65;56.45
61742;BME280;47650;49.848;9.620;2023-04-28T12:45:10;99184.13;;;21.63;55.64
61742;BME280;47650;49.848;9.620;2023-04-28T12:47:36;99168.41;;;20.36;55.19
61742;BME280;47650;49.848;9.620;2023-04-28T12:50:03;99201.81;;;21.40;54.60
61742;BME280;47650;49.848;9.620;2023-04-28T12:52:29;99191.06;;;22.13;54.01
61742;BME280;47650;49.848;9.620;2023-04-28T12:55:00;99194.25;;;22.10;53.76
61742;BME280;47650;49.848;9.620;2023-04-28T12:57:25;99214.63;;;20.58;53.84
61742;BME280;47650;49.848;9.620;2023-04-28T12:59:50;99208.28;;;20.77;56.25
61742;BME280;47650;49.848;9.620;2023-04-28T13:02:22;99208.09;;;20.72;55.91
61742;BME280;47650;49.848;9.620;2023-04-28T13:04:53;99205.72;;;20.32;56.72
61742;BME280;47650;49.848;9.620;2023-04-28T13:07:19;99202.75;;;19.83;58.00
61742;BME280;47650;49.848;9.620;2023-04-28T13:09:45;99126.09;;;20.87;54.94
61742;BME280;47650;49.848;9.620;2023-04-28T13:12:11;99169.38;;;21.10;56.17
61742;BME280;47650;49.848;9.620;2023-04-28T13:14:38;98957.75;;;20.22;55.56
61742;BME280;47650;49.848;9.620;2023-04-28T13:17:05;99144.97;;;21.05;53.88
61742;BME280;47650;49.848;9.620;2023-04-28T13:19:30;99162.81;;;21.73;54.49
61742;BME280;47650;49.848;9.620;2023-04-28T13:21:57;99118.25;;;20.41;54.21
61742;BME280;47650;49.848;9.620;2023-04-28T13:24:27;99166.44;;;20.24;55.83